createdAt,value
2023-03-30T00:00:56.942Z,2.67
2023-03-30T00:03:24.849Z,2.70
2023-03-30T00:05:51.998Z,2.87
2023-03-30T00:08:19.506Z,2.83
2023-03-30T00:10:47.803Z,2.58
2023-03-30T00:13:14.808Z,2.38
2023-03-30T00:15:41.835Z,2.37
2023-03-30T00:18:09.374Z,2.23
2023-03-30T00:20:37.597Z,2.50
2023-03-30T00:23:04.688Z,2.10
2023-03-30T00:25:31.661Z,3.00
2023-03-30T00:27:58.500Z,2.15
2023-03-30T00:30:25.969Z,2.70
2023-03-30T00:32:53.876Z,2.70
2023-03-30T00:35:21.122Z,2.50
2023-03-30T00:37:49.620Z,2.72
2023-03-30T00:40:20.535Z,2.40
2023-03-30T00:42:47.905Z,2.55
2023-03-30T00:45:22.183Z,1.93
2023-03-30T00:47:54.422Z,2.10
2023-03-30T00:50:24.882Z,2.25
2023-03-30T00:52:54.581Z,2.60
2023-03-30T00:55:23.976Z,2.50
2023-03-30T00:57:52.902Z,2.40
2023-03-30T01:00:20.316Z,2.55
2023-03-30T01:03:17.589Z,2.47
2023-03-30T01:05:46.258Z,2.70
2023-03-30T01:08:16.636Z,1.90
2023-03-30T01:10:44.718Z,1.80
2023-03-30T01:13:16.187Z,2.47
2023-03-30T01:16:01.329Z,2.42
2023-03-30T01:18:38.087Z,2.63
2023-03-30T01:21:43.098Z,2.08
2023-03-30T01:24:34.883Z,1.92
2023-03-30T01:27:24.754Z,2.75
2023-03-30T01:30:14.280Z,2.43
2023-03-30T01:32:46.848Z,1.92
2023-03-30T01:35:59.324Z,2.30
2023-03-30T01:38:44.671Z,2.08
2023-03-30T01:41:34.160Z,2.40
2023-03-30T01:44:04.822Z,2.30
2023-03-30T01:46:40.402Z,2.05
2023-03-30T01:49:30.043Z,2.20
2023-03-30T01:52:02.569Z,1.80
2023-03-30T01:54:36.372Z,2.38
2023-03-30T01:57:09.351Z,2.43
2023-03-30T01:59:56.497Z,3.83
2023-03-30T02:02:28.371Z,2.10
2023-03-30T02:04:57.896Z,2.20
2023-03-30T02:07:29.476Z,2.47
2023-03-30T02:10:01.939Z,2.20
2023-03-30T02:12:30.939Z,2.67
2023-03-30T02:15:10.473Z,2.47
2023-03-30T02:17:38.264Z,2.80
2023-03-30T02:20:09.259Z,2.40
2023-03-30T02:22:36.129Z,2.17
2023-03-30T02:25:03.279Z,2.80
2023-03-30T02:27:31.921Z,2.75
2023-03-30T02:29:58.923Z,2.90
2023-03-30T02:32:29.292Z,2.90
2023-03-30T02:35:16.294Z,2.60
2023-03-30T02:37:58.263Z,2.43
2023-03-30T02:41:22.551Z,2.73
2023-03-30T02:44:24.128Z,2.43
2023-03-30T02:47:05.243Z,2.87
2023-03-30T02:49:38.090Z,2.70
2023-03-30T02:52:37.011Z,2.50
2023-03-30T02:55:19.654Z,2.67
2023-03-30T02:58:04.613Z,2.40
2023-03-30T03:00:46.737Z,3.73
2023-03-30T03:03:27.804Z,3.63
2023-03-30T03:05:56.183Z,3.50
2023-03-30T03:10:52.325Z,3.40
2023-03-30T03:13:20.963Z,2.87
2023-03-30T03:15:49.685Z,2.67
2023-03-30T03:18:16.769Z,2.70
2023-03-30T03:20:43.774Z,3.57
2023-03-30T03:23:10.838Z,2.60
2023-03-30T03:25:37.849Z,3.50
2023-03-30T03:28:04.863Z,3.23
2023-03-30T03:30:32.135Z,3.10
2023-03-30T03:32:59.062Z,3.97
2023-03-30T03:35:27.447Z,3.00
2023-03-30T03:37:54.310Z,2.97
2023-03-30T03:40:21.253Z,3.53
2023-03-30T03:42:48.526Z,2.97
2023-03-30T03:45:15.527Z,2.80
2023-03-30T03:47:42.588Z,3.50
2023-03-30T03:50:10.067Z,3.50
2023-03-30T03:52:37.452Z,4.10
2023-03-30T03:55:04.911Z,2.90
2023-03-30T03:57:32.017Z,3.27
2023-03-30T03:59:59.937Z,4.03
2023-03-30T04:02:27.878Z,3.58
2023-03-30T04:04:55.728Z,4.00
2023-03-30T04:07:25.619Z,4.17
2023-03-30T04:09:52.543Z,3.63
2023-03-30T04:12:20.320Z,3.77
2023-03-30T04:14:47.281Z,3.20
2023-03-30T04:17:14.984Z,3.80
2023-03-30T04:19:42.063Z,3.58
2023-03-30T04:22:09.114Z,3.55
2023-03-30T04:24:35.959Z,3.95
2023-03-30T04:27:03.387Z,3.88
2023-03-30T04:29:30.917Z,3.38
2023-03-30T04:32:02.890Z,3.57
2023-03-30T04:34:31.115Z,4.17
2023-03-30T04:36:58.326Z,3.80
2023-03-30T04:39:30.077Z,3.40
2023-03-30T04:41:57.182Z,3.70
2023-03-30T04:44:24.184Z,4.10
2023-03-30T04:46:50.967Z,4.15
2023-03-30T04:49:17.769Z,3.60
2023-03-30T04:51:44.624Z,5.00
2023-03-30T04:54:11.481Z,3.58
2023-03-30T04:56:38.273Z,3.60
2023-03-30T04:59:05.107Z,3.70
2023-03-30T05:01:31.935Z,3.45
2023-03-30T05:03:58.783Z,4.07
2023-03-30T05:06:27.154Z,4.10
2023-03-30T05:08:54.027Z,3.92
2023-03-30T05:11:20.847Z,3.90
2023-03-30T05:13:47.777Z,4.10
2023-03-30T05:16:14.599Z,3.90
2023-03-30T05:18:41.704Z,4.43
2023-03-30T05:21:08.484Z,4.47
2023-03-30T05:23:36.223Z,4.30
2023-03-30T05:26:04.598Z,4.15
2023-03-30T05:28:32.593Z,3.95
2023-03-30T05:30:59.752Z,3.47
2023-03-30T05:33:27.216Z,4.05
2023-03-30T05:35:54.278Z,4.00
2023-03-30T05:38:21.186Z,4.70
2023-03-30T05:40:53.137Z,3.60
2023-03-30T05:43:20.042Z,4.40
2023-03-30T05:45:46.943Z,4.32
2023-03-30T05:48:13.719Z,3.38
2023-03-30T05:50:40.871Z,4.00
2023-03-30T05:53:07.672Z,3.90
2023-03-30T05:55:34.594Z,4.35
2023-03-30T05:58:01.399Z,4.68
2023-03-30T06:00:29.184Z,4.00
2023-03-30T06:02:56.116Z,4.25
2023-03-30T06:05:23.078Z,4.20
2023-03-30T06:07:49.909Z,3.88
2023-03-30T06:10:17.391Z,4.22
2023-03-30T06:12:44.208Z,4.78
2023-03-30T06:15:11.456Z,5.05
2023-03-30T06:17:38.975Z,4.20
2023-03-30T06:20:12.651Z,4.07
2023-03-30T06:22:41.633Z,3.80
2023-03-30T06:25:09.759Z,4.33
2023-03-30T06:27:37.477Z,4.40
2023-03-30T06:30:04.930Z,4.38
2023-03-30T06:32:31.919Z,4.88
2023-03-30T06:34:58.791Z,4.50
2023-03-30T06:37:25.669Z,5.03
2023-03-30T06:39:52.834Z,4.53
2023-03-30T06:42:19.780Z,4.50
2023-03-30T06:44:48.091Z,4.50
2023-03-30T06:47:16.317Z,5.10
2023-03-30T06:49:43.127Z,4.30
2023-03-30T06:52:09.965Z,4.93
2023-03-30T06:54:36.865Z,5.10
2023-03-30T06:57:04.113Z,4.23
2023-03-30T06:59:34.599Z,4.67
2023-03-30T07:02:03.294Z,4.50
2023-03-30T07:04:30.160Z,4.13
2023-03-30T07:06:57.825Z,4.00
2023-03-30T07:09:25.340Z,3.67
2023-03-30T07:11:54.452Z,3.37
2023-03-30T07:14:23.087Z,3.20
2023-03-30T07:16:50.048Z,3.73
2023-03-30T07:19:16.895Z,4.50
2023-03-30T07:21:43.790Z,4.43
2023-03-30T07:24:10.608Z,3.37
2023-03-30T07:26:37.520Z,4.10
2023-03-30T07:29:05.609Z,3.70
2023-03-30T07:31:32.552Z,3.47
2023-03-30T07:33:59.611Z,3.20
2023-03-30T07:36:26.728Z,3.40
2023-03-30T07:38:53.536Z,3.70
2023-03-30T07:41:21.248Z,3.30
2023-03-30T07:43:48.053Z,3.40
2023-03-30T07:46:14.874Z,3.30
2023-03-30T07:48:41.674Z,3.47
2023-03-30T07:51:12.256Z,3.33
2023-03-30T07:53:39.868Z,3.53
2023-03-30T07:56:07.509Z,3.03
2023-03-30T07:58:34.300Z,3.57
2023-03-30T08:01:03.367Z,4.57
2023-03-30T08:03:32.103Z,4.07
2023-03-30T08:06:06.576Z,3.60
2023-03-30T08:08:34.306Z,3.50
2023-03-30T08:11:01.482Z,3.63
2023-03-30T08:13:28.533Z,3.13
2023-03-30T08:15:55.405Z,3.60
2023-03-30T08:18:22.288Z,3.50
2023-03-30T08:20:52.576Z,3.13
2023-03-30T08:23:20.479Z,4.03
2023-03-30T08:25:52.294Z,2.90
2023-03-30T08:28:21.459Z,3.47
2023-03-30T08:30:48.807Z,3.43
2023-03-30T08:33:16.273Z,3.67
2023-03-30T08:35:49.930Z,3.70
2023-03-30T08:38:17.398Z,3.00
2023-03-30T08:40:46.599Z,3.63
2023-03-30T08:43:44.922Z,4.07
2023-03-30T08:46:15.884Z,3.30
2023-03-30T08:48:43.280Z,3.20
2023-03-30T08:51:20.852Z,3.27
2023-03-30T08:53:51.497Z,3.83
2023-03-30T08:56:31.898Z,3.87
2023-03-30T08:59:07.239Z,3.40
2023-03-30T09:02:03.904Z,3.77
2023-03-30T09:04:42.406Z,3.83
2023-03-30T09:07:20.433Z,3.83
2023-03-30T09:09:49.495Z,3.53
2023-03-30T09:12:34.448Z,3.30
2023-03-30T09:15:12.935Z,3.77
2023-03-30T09:17:46.927Z,3.70
2023-03-30T09:20:20.688Z,3.03
2023-03-30T09:22:48.659Z,3.27
2023-03-30T09:25:19.016Z,3.50
2023-03-30T09:27:49.820Z,4.07
2023-03-30T09:30:22.597Z,3.20
2023-03-30T09:33:04.220Z,3.30
2023-03-30T09:35:57.631Z,3.17
2023-03-30T09:38:24.560Z,3.20
2023-03-30T09:41:07.364Z,3.00
2023-03-30T09:43:44.120Z,2.83
2023-03-30T09:46:12.148Z,3.20
2023-03-30T09:48:46.761Z,3.40
2023-03-30T09:51:17.852Z,3.60
2023-03-30T09:53:47.365Z,2.93
2023-03-30T09:56:18.758Z,3.27
2023-03-30T09:58:45.587Z,3.00
2023-03-30T10:01:16.716Z,3.17
2023-03-30T10:03:45.598Z,3.10
2023-03-30T10:06:19.812Z,3.50
2023-03-30T10:08:50.923Z,3.43
2023-03-30T10:11:37.165Z,3.37
2023-03-30T10:14:05.383Z,3.40
2023-03-30T10:16:35.574Z,3.80
2023-03-30T10:19:05.518Z,2.80
2023-03-30T10:21:38.954Z,3.57
2023-03-30T10:24:22.201Z,3.30
2023-03-30T10:26:53.088Z,3.70
2023-03-30T10:29:22.993Z,3.67
2023-03-30T10:32:02.365Z,3.10
2023-03-30T10:34:41.635Z,4.07
2023-03-30T10:37:21.557Z,3.20
2023-03-30T10:39:51.228Z,3.60
2023-03-30T10:42:25.367Z,3.27
2023-03-30T10:44:55.477Z,4.13
2023-03-30T10:47:28.231Z,3.90
2023-03-30T10:50:23.383Z,3.37
2023-03-30T10:53:01.206Z,3.97
2023-03-30T10:55:42.721Z,3.30
2023-03-30T10:58:49.210Z,3.73
2023-03-30T11:01:29.869Z,3.20
2023-03-30T11:04:12.437Z,4.00
2023-03-30T11:06:44.717Z,3.03
2023-03-30T11:09:17.713Z,3.77
2023-03-30T11:11:55.881Z,3.70
2023-03-30T11:14:32.335Z,6.03
2023-03-30T11:17:09.121Z,3.70
2023-03-30T11:19:47.158Z,3.17
2023-03-30T11:22:33.555Z,3.93
2023-03-30T11:25:03.342Z,3.47
2023-03-30T11:27:56.231Z,3.87
2023-03-30T11:30:29.565Z,3.97
2023-03-30T11:33:07.980Z,3.43
2023-03-30T11:36:05.448Z,2.80
2023-03-30T11:38:38.981Z,2.80
2023-03-30T11:41:14.631Z,2.80
2023-03-30T11:43:41.878Z,3.47
2023-03-30T11:46:37.304Z,3.70
2023-03-30T11:49:22.207Z,2.73
2023-03-30T11:52:21.552Z,3.50
2023-03-30T11:55:23.863Z,2.70
2023-03-30T11:57:50.805Z,3.93
2023-03-30T12:00:42.913Z,3.40
2023-03-30T12:03:09.870Z,4.10
2023-03-30T12:05:46.346Z,3.60
2023-03-30T12:08:22.038Z,3.70
2023-03-30T12:10:55.834Z,3.80
2023-03-30T12:13:22.693Z,3.60
2023-03-30T12:15:55.815Z,3.80
2023-03-30T12:18:38.989Z,3.90
2023-03-30T12:21:13.909Z,3.37
2023-03-30T12:23:49.775Z,3.27
2023-03-30T12:26:28.989Z,3.77
2023-03-30T12:29:44.497Z,3.63
2023-03-30T12:32:03.578Z,3.90
2023-03-30T12:34:37.397Z,4.07
2023-03-30T12:37:23.195Z,3.60
2023-03-30T12:40:09.651Z,3.20
2023-03-30T12:42:54.358Z,4.10
2023-03-30T12:45:34.283Z,3.80
2023-03-30T12:48:34.312Z,3.60
2023-03-30T12:51:19.889Z,3.60
2023-03-30T12:54:08.366Z,3.97
2023-03-30T12:57:07.405Z,3.63
2023-03-30T12:59:43.394Z,3.70
2023-03-30T13:02:30.302Z,3.17
2023-03-30T13:04:58.196Z,3.03
2023-03-30T13:07:29.121Z,2.80
2023-03-30T13:10:03.366Z,3.40
2023-03-30T13:12:50.546Z,2.80
2023-03-30T13:15:17.320Z,2.97
2023-03-30T13:17:56.544Z,2.67
2023-03-30T13:20:33.903Z,3.20
2023-03-30T13:23:05.326Z,3.03
2023-03-30T13:25:56.646Z,2.63
2023-03-30T13:28:59.384Z,2.78
2023-03-30T13:31:50.703Z,2.63
2023-03-30T13:34:26.327Z,2.30
2023-03-30T13:37:04.912Z,2.50
2023-03-30T13:40:24.293Z,2.87
2023-03-30T13:43:11.445Z,2.70
2023-03-30T13:46:09.203Z,2.65
2023-03-30T13:49:14.166Z,2.10
2023-03-30T13:51:45.041Z,2.13
2023-03-30T13:54:19.520Z,2.40
2023-03-30T13:56:51.119Z,2.37
2023-03-30T13:59:21.535Z,2.40
2023-03-30T14:01:55.621Z,2.38
2023-03-30T14:04:22.850Z,2.10
2023-03-30T14:06:52.518Z,2.17
2023-03-30T14:09:24.953Z,2.30
2023-03-30T14:12:00.772Z,2.17
2023-03-30T14:14:37.463Z,2.37
2023-03-30T14:17:23.150Z,2.33
2023-03-30T14:20:15.477Z,2.30
2023-03-30T14:22:45.913Z,2.40
2023-03-30T14:25:34.952Z,2.63
2023-03-30T14:28:19.798Z,2.23
2023-03-30T14:31:04.596Z,2.60
2023-03-30T14:33:35.431Z,3.10
2023-03-30T14:36:02.818Z,3.40
2023-03-30T14:38:38.437Z,3.47
2023-03-30T14:41:14.539Z,3.30
2023-03-30T14:43:42.235Z,3.17
2023-03-30T14:46:11.944Z,3.50
2023-03-30T14:48:42.086Z,3.30
2023-03-30T14:51:26.962Z,3.43
2023-03-30T14:53:55.117Z,3.63
2023-03-30T14:56:23.005Z,3.93
2023-03-30T14:58:52.453Z,3.10
2023-03-30T15:01:32.298Z,3.93
2023-03-30T15:04:09.134Z,3.10
2023-03-30T15:06:36.979Z,3.47
2023-03-30T15:09:13.039Z,4.03
2023-03-30T15:11:40.776Z,3.53
2023-03-30T15:14:09.875Z,3.70
2023-03-30T15:16:37.478Z,4.17
2023-03-30T15:19:31.067Z,4.27
2023-03-30T15:22:05.170Z,3.67
2023-03-30T15:24:34.634Z,5.03
2023-03-30T15:27:05.413Z,3.70
2023-03-30T15:29:33.021Z,4.00
2023-03-30T15:32:35.269Z,4.13
2023-03-30T15:35:07.305Z,4.33
2023-03-30T15:37:35.702Z,4.50
2023-03-30T15:40:05.003Z,4.50
2023-03-30T15:42:33.474Z,4.17
2023-03-30T15:45:18.436Z,3.60
2023-03-30T15:47:45.660Z,4.17
2023-03-30T15:50:14.554Z,3.73
2023-03-30T15:52:44.906Z,3.80
2023-03-30T15:55:21.441Z,3.77
2023-03-30T15:57:51.393Z,4.10
2023-03-30T16:00:22.373Z,3.60
2023-03-30T16:02:57.758Z,4.00
2023-03-30T16:05:34.019Z,3.80
2023-03-30T16:08:01.115Z,3.60
2023-03-30T16:10:30.536Z,2.80
2023-03-30T16:12:58.450Z,3.60
2023-03-30T16:15:29.251Z,4.20
2023-03-30T16:17:56.212Z,3.37
2023-03-30T16:20:33.176Z,3.20
2023-03-30T16:23:00.013Z,3.30
2023-03-30T16:25:34.505Z,2.97
2023-03-30T16:28:16.438Z,3.33
2023-03-30T16:30:46.287Z,3.10
2023-03-30T16:33:13.226Z,3.30
2023-03-30T16:35:40.408Z,3.67
2023-03-30T16:38:07.433Z,3.07
2023-03-30T16:40:41.554Z,3.50
2023-03-30T16:43:09.674Z,4.13
2023-03-30T16:45:36.681Z,4.00
2023-03-30T16:48:03.804Z,3.80
2023-03-30T16:50:38.247Z,4.27
2023-03-30T16:53:05.898Z,4.47
2023-03-30T16:55:33.451Z,4.20
2023-03-30T16:58:00.452Z,4.40
2023-03-30T17:00:45.764Z,4.10
2023-03-30T17:03:13.112Z,4.73
2023-03-30T17:05:40.378Z,4.70
2023-03-30T17:08:21.935Z,5.80
2023-03-30T17:10:49.005Z,4.57
2023-03-30T17:13:16.080Z,4.63
2023-03-30T17:15:43.074Z,4.60
2023-03-30T17:18:25.292Z,3.60
2023-03-30T17:20:57.378Z,4.67
2023-03-30T17:23:29.750Z,4.60
2023-03-30T17:25:59.505Z,4.80
2023-03-30T17:28:34.605Z,4.20
2023-03-30T17:31:04.513Z,5.00
2023-03-30T17:33:32.301Z,4.63
2023-03-30T17:36:05.215Z,4.40
2023-03-30T17:38:32.815Z,4.40
2023-03-30T17:40:59.655Z,4.80
2023-03-30T17:43:26.417Z,5.18
2023-03-30T17:45:53.261Z,4.95
2023-03-30T17:48:21.396Z,4.60
2023-03-30T17:50:50.343Z,4.28
2023-03-30T17:53:19.197Z,4.60
2023-03-30T17:55:47.865Z,4.43
2023-03-30T17:58:37.759Z,3.93
2023-03-30T18:01:12.530Z,4.60
2023-03-30T18:03:39.857Z,4.50
2023-03-30T18:06:07.404Z,4.55
2023-03-30T18:08:34.597Z,4.78
2023-03-30T18:11:01.877Z,5.03
2023-03-30T18:13:29.750Z,4.47
2023-03-30T18:15:59.022Z,4.40
2023-03-30T18:18:28.643Z,5.13
2023-03-30T18:21:03.418Z,5.37
2023-03-30T18:23:34.974Z,4.93
2023-03-30T18:26:03.970Z,4.60
2023-03-30T18:28:31.631Z,4.37
2023-03-30T18:31:00.898Z,4.47
2023-03-30T18:33:28.104Z,3.90
2023-03-30T18:35:57.051Z,4.37
2023-03-30T18:38:25.629Z,4.95
2023-03-30T18:40:58.197Z,5.10
2023-03-30T18:43:28.873Z,4.30
2023-03-30T18:46:00.783Z,4.45
2023-03-30T18:48:27.830Z,3.70
2023-03-30T18:50:55.304Z,3.30
2023-03-30T18:53:23.950Z,4.35
2023-03-30T18:55:53.255Z,4.63
2023-03-30T18:58:23.524Z,4.35
2023-03-30T19:00:51.797Z,3.80
2023-03-30T19:03:20.197Z,4.50
2023-03-30T19:05:48.108Z,4.13
2023-03-30T19:08:19.415Z,4.50
2023-03-30T19:10:48.202Z,4.00
2023-03-30T19:13:17.621Z,4.60
2023-03-30T19:15:45.738Z,3.95
2023-03-30T19:18:13.895Z,3.80
2023-03-30T19:20:42.169Z,3.05
2023-03-30T19:23:12.756Z,4.00
2023-03-30T19:25:40.572Z,3.42
2023-03-30T19:28:08.258Z,3.15
2023-03-30T19:30:39.068Z,3.50
2023-03-30T19:33:09.522Z,3.53
2023-03-30T19:35:36.485Z,3.17
2023-03-30T19:38:03.470Z,3.55
2023-03-30T19:40:30.389Z,3.40
2023-03-30T19:42:57.241Z,3.63
2023-03-30T19:45:24.412Z,3.30
2023-03-30T19:47:52.267Z,3.35
2023-03-30T19:50:23.200Z,3.40
2023-03-30T19:52:51.067Z,3.70
2023-03-30T19:55:19.457Z,3.70
2023-03-30T19:57:46.619Z,3.30
2023-03-30T20:00:15.973Z,3.20
2023-03-30T20:02:48.753Z,3.00
2023-03-30T20:05:16.771Z,3.25
2023-03-30T20:07:44.895Z,3.05
2023-03-30T20:10:16.545Z,2.80
2023-03-30T20:12:43.757Z,2.33
2023-03-30T20:15:11.277Z,3.35
2023-03-30T20:17:39.335Z,2.50
2023-03-30T20:20:09.032Z,2.60
2023-03-30T20:22:37.394Z,3.17
2023-03-30T20:25:09.026Z,2.42
2023-03-30T20:27:36.393Z,2.25
2023-03-30T20:30:05.781Z,3.00
2023-03-30T20:32:34.626Z,2.63
2023-03-30T20:35:01.621Z,2.53
2023-03-30T20:37:28.736Z,2.75
2023-03-30T20:40:03.764Z,2.65
2023-03-30T20:42:33.862Z,2.35
2023-03-30T20:45:01.345Z,2.40
2023-03-30T20:47:31.065Z,2.33
2023-03-30T20:49:59.006Z,2.40
2023-03-30T20:52:26.748Z,3.00
2023-03-30T20:54:54.226Z,2.70
2023-03-30T20:57:21.658Z,2.42
2023-03-30T20:59:49.714Z,2.90
2023-03-30T21:02:17.661Z,2.70
2023-03-30T21:04:45.084Z,2.30
2023-03-30T21:07:12.368Z,2.60
2023-03-30T21:09:39.755Z,2.30
2023-03-30T21:12:09.751Z,2.50
2023-03-30T21:14:36.706Z,2.53
2023-03-30T21:17:03.791Z,2.50
2023-03-30T21:19:30.865Z,2.53
2023-03-30T21:21:57.878Z,2.70
2023-03-30T21:24:24.836Z,3.00
2023-03-30T21:26:51.722Z,2.30
2023-03-30T21:29:18.730Z,2.72
2023-03-30T21:31:45.555Z,2.70
2023-03-30T21:34:13.262Z,2.38
2023-03-30T21:36:40.216Z,2.70
2023-03-30T21:39:07.264Z,2.53
2023-03-30T21:41:34.313Z,2.60
2023-03-30T21:44:01.453Z,3.00
2023-03-30T21:46:28.682Z,2.90
2023-03-30T21:48:55.620Z,2.92
2023-03-30T21:51:25.760Z,2.90
2023-03-30T21:53:53.778Z,2.80
2023-03-30T21:56:23.452Z,3.00
2023-03-30T21:58:50.909Z,2.70
2023-03-30T22:01:18.905Z,3.25
2023-03-30T22:03:46.246Z,2.50
2023-03-30T22:06:15.064Z,2.65
2023-03-30T22:08:42.408Z,3.30
2023-03-30T22:11:12.809Z,3.60
2023-03-30T22:13:39.728Z,3.22
2023-03-30T22:16:12.955Z,3.25
2023-03-30T22:18:40.842Z,2.92
2023-03-30T22:21:11.458Z,2.70
2023-03-30T22:23:38.388Z,2.75
2023-03-30T22:26:06.691Z,3.17
2023-03-30T22:28:34.515Z,3.80
2023-03-30T22:31:01.422Z,4.45
2023-03-30T22:33:28.939Z,3.22
2023-03-30T22:35:57.160Z,3.60
2023-03-30T22:38:24.207Z,3.92
2023-03-30T22:40:51.339Z,3.80
2023-03-30T22:43:18.313Z,3.90
2023-03-30T22:45:45.430Z,4.28
2023-03-30T22:48:12.300Z,4.70
2023-03-30T22:50:39.220Z,5.15
2023-03-30T22:53:06.145Z,4.35
2023-03-30T22:55:32.993Z,4.07
2023-03-30T22:58:00.750Z,4.80
2023-03-30T23:00:27.652Z,4.60
2023-03-30T23:02:54.582Z,5.10
2023-03-30T23:05:21.627Z,4.43
2023-03-30T23:07:49.557Z,5.30
2023-03-30T23:10:23.152Z,4.90
2023-03-30T23:12:49.989Z,5.25
2023-03-30T23:15:18.661Z,4.88
2023-03-30T23:17:47.458Z,5.38
2023-03-30T23:20:15.453Z,5.65
2023-03-30T23:22:42.730Z,5.05
2023-03-30T23:25:10.795Z,5.50
2023-03-30T23:27:38.148Z,4.75
2023-03-30T23:30:06.684Z,5.50
2023-03-30T23:32:35.350Z,5.30
2023-03-30T23:35:03.163Z,5.43
2023-03-30T23:37:30.322Z,5.00
2023-03-30T23:39:59.044Z,5.40
2023-03-30T23:42:26.020Z,6.07
2023-03-30T23:44:52.891Z,5.40
2023-03-30T23:47:20.551Z,6.30
2023-03-30T23:49:47.440Z,6.10
2023-03-30T23:52:14.284Z,6.00
2023-03-30T23:54:41.271Z,5.78
2023-03-30T23:57:09.800Z,5.35
2023-03-30T23:59:37.580Z,5.75
